createdAt,value
2018-11-07T00:00:17.052Z,29.95
2018-11-07T00:02:47.411Z,29.00
2018-11-07T00:05:17.664Z,28.90
2018-11-07T00:07:46.085Z,31.60
2018-11-07T00:11:18.341Z,30.20
2018-11-07T00:13:47.744Z,31.10
2018-11-07T00:16:17.524Z,30.12
2018-11-07T00:18:48.906Z,32.30
2018-11-07T00:21:28.119Z,29.82
2018-11-07T00:23:57.190Z,30.75
2018-11-07T00:26:33.371Z,31.50
2018-11-07T00:29:21.736Z,31.90
2018-11-07T00:32:10.257Z,27.82
2018-11-07T00:34:53.577Z,28.98
2018-11-07T00:37:22.190Z,29.82
2018-11-07T00:39:51.257Z,29.45
2018-11-07T00:42:19.447Z,28.85
2018-11-07T00:44:47.524Z,30.08
2018-11-07T00:47:15.692Z,27.25
2018-11-07T00:49:43.813Z,28.25
2018-11-07T00:52:11.935Z,29.52
2018-11-07T00:54:40.095Z,27.93
2018-11-07T00:57:08.927Z,29.10
2018-11-07T00:59:37.200Z,28.12
2018-11-07T01:02:05.346Z,28.83
2018-11-07T01:04:33.500Z,27.30
2018-11-07T01:07:01.617Z,27.70
2018-11-07T01:09:29.775Z,26.85
2018-11-07T01:11:57.838Z,25.43
2018-11-07T01:14:25.960Z,26.87
2018-11-07T01:16:54.100Z,23.92
2018-11-07T01:19:22.244Z,25.85
2018-11-07T01:21:50.341Z,25.88
2018-11-07T01:24:18.578Z,24.67
2018-11-07T01:26:46.672Z,26.00
2018-11-07T01:29:14.799Z,28.32
2018-11-07T01:31:42.942Z,26.85
2018-11-07T01:34:11.090Z,27.10
2018-11-07T01:36:39.115Z,26.68
2018-11-07T01:39:08.481Z,28.05
2018-11-07T01:41:36.596Z,29.30
2018-11-07T01:44:04.740Z,27.02
2018-11-07T01:46:32.903Z,26.82
2018-11-07T01:49:01.023Z,29.40
2018-11-07T01:51:29.150Z,28.38
2018-11-07T01:53:57.288Z,29.12
2018-11-07T01:56:25.451Z,32.63
2018-11-07T01:58:53.564Z,33.35
2018-11-07T02:01:21.682Z,35.28
2018-11-07T02:03:49.816Z,33.48
2018-11-07T02:06:17.943Z,32.23
2018-11-07T02:08:46.060Z,32.65
2018-11-07T02:11:14.188Z,34.35
2018-11-07T02:13:42.401Z,33.20
2018-11-07T02:16:10.530Z,34.58
2018-11-07T02:18:38.734Z,31.48
2018-11-07T02:21:06.883Z,29.40
2018-11-07T02:23:34.984Z,27.00
2018-11-07T02:26:03.096Z,28.23
2018-11-07T02:28:31.216Z,27.80
2018-11-07T02:30:59.356Z,28.05
2018-11-07T02:33:27.477Z,28.60
2018-11-07T02:35:55.604Z,29.05
2018-11-07T02:38:23.709Z,29.12
2018-11-07T02:40:51.887Z,31.35
2018-11-07T02:43:19.996Z,30.00
2018-11-07T02:45:48.154Z,30.50
2018-11-07T02:48:16.263Z,27.52
2018-11-07T02:50:44.395Z,28.77
2018-11-07T02:53:12.504Z,27.95
2018-11-07T02:55:40.595Z,27.22
2018-11-07T02:58:08.688Z,29.35
2018-11-07T03:00:36.808Z,29.50
2018-11-07T03:03:04.969Z,28.70
2018-11-07T03:05:33.088Z,28.25
2018-11-07T03:08:01.197Z,29.70
2018-11-07T03:10:29.475Z,27.67
2018-11-07T03:12:57.615Z,29.45
2018-11-07T03:15:25.764Z,30.95
2018-11-07T03:17:53.876Z,29.07
2018-11-07T03:20:21.986Z,29.50
2018-11-07T03:22:50.095Z,28.25
2018-11-07T03:25:18.221Z,28.70
2018-11-07T03:27:46.473Z,29.05
2018-11-07T03:30:14.598Z,29.18
2018-11-07T03:32:42.708Z,27.98
2018-11-07T03:35:16.177Z,30.77
2018-11-07T03:37:44.352Z,27.93
2018-11-07T03:40:12.457Z,30.10
2018-11-07T03:42:40.563Z,29.95
2018-11-07T03:45:09.058Z,28.98
2018-11-07T03:47:37.148Z,25.70
2018-11-07T03:50:05.635Z,27.82
2018-11-07T03:52:33.775Z,27.35
2018-11-07T03:55:01.885Z,26.95
2018-11-07T03:57:30.039Z,27.02
2018-11-07T03:59:58.148Z,25.32
2018-11-07T04:02:26.305Z,26.48
2018-11-07T04:04:54.441Z,25.85
2018-11-07T04:07:22.555Z,23.85
2018-11-07T04:09:50.669Z,25.37
2018-11-07T04:12:18.876Z,24.72
2018-11-07T04:14:46.980Z,24.12
2018-11-07T04:17:15.084Z,26.12
2018-11-07T04:19:43.228Z,24.90
2018-11-07T04:22:11.311Z,25.10
2018-11-07T04:24:39.407Z,25.60
2018-11-07T04:27:07.523Z,24.72
2018-11-07T04:29:35.627Z,25.92
2018-11-07T04:32:10.417Z,23.83
2018-11-07T04:34:38.568Z,23.32
2018-11-07T04:37:06.663Z,25.15
2018-11-07T04:39:34.780Z,27.13
2018-11-07T04:42:02.998Z,23.77
2018-11-07T04:44:31.076Z,24.07
2018-11-07T04:46:59.230Z,24.57
2018-11-07T04:49:27.415Z,23.47
2018-11-07T04:51:55.595Z,23.40
2018-11-07T04:54:23.715Z,25.05
2018-11-07T04:56:51.816Z,26.68
2018-11-07T04:59:19.934Z,26.75
2018-11-07T05:01:48.058Z,24.85
2018-11-07T05:04:16.163Z,28.00
2018-11-07T05:06:44.299Z,25.65
2018-11-07T05:09:12.403Z,25.85
2018-11-07T05:11:40.487Z,28.02
2018-11-07T05:14:08.597Z,27.87
2018-11-07T05:16:36.697Z,30.02
2018-11-07T05:19:04.860Z,29.50
2018-11-07T05:21:33.002Z,29.05
2018-11-07T05:24:01.126Z,28.02
2018-11-07T05:26:29.260Z,27.62
2018-11-07T05:28:57.375Z,27.87
2018-11-07T05:31:25.849Z,27.75
2018-11-07T05:33:54.240Z,27.37
2018-11-07T05:36:22.341Z,26.12
2018-11-07T05:38:50.434Z,25.88
2018-11-07T05:41:18.608Z,24.43
2018-11-07T05:43:47.040Z,23.62
2018-11-07T05:46:15.170Z,24.52
2018-11-07T05:48:43.288Z,23.73
2018-11-07T05:51:11.395Z,24.50
2018-11-07T05:53:39.501Z,26.35
2018-11-07T05:56:07.587Z,24.85
2018-11-07T05:58:35.700Z,24.25
2018-11-07T06:01:03.809Z,24.20
2018-11-07T06:03:31.938Z,23.55
2018-11-07T06:06:00.041Z,23.55
2018-11-07T06:08:28.295Z,22.52
2018-11-07T06:10:56.395Z,21.50
2018-11-07T06:13:24.519Z,23.40
2018-11-07T06:15:52.632Z,23.05
2018-11-07T06:18:20.813Z,22.35
2018-11-07T06:20:48.917Z,22.80
2018-11-07T06:23:17.019Z,20.43
2018-11-07T06:25:45.097Z,23.85
2018-11-07T06:28:13.211Z,24.10
2018-11-07T06:30:41.333Z,23.20
2018-11-07T06:33:09.517Z,24.12
2018-11-07T06:35:37.619Z,24.67
2018-11-07T06:38:05.747Z,23.27
2018-11-07T06:40:33.909Z,25.60
2018-11-07T06:43:02.031Z,23.10
2018-11-07T06:45:30.138Z,25.05
2018-11-07T06:47:58.251Z,25.17
2018-11-07T06:50:26.361Z,24.98
2018-11-07T06:52:54.500Z,27.25
2018-11-07T06:55:22.598Z,22.67
2018-11-07T06:57:50.687Z,23.35
2018-11-07T07:00:18.781Z,24.47
2018-11-07T07:02:47.903Z,21.33
2018-11-07T07:05:16.368Z,21.62
2018-11-07T07:07:44.488Z,21.15
2018-11-07T07:10:14.824Z,21.40
2018-11-07T07:12:43.075Z,22.35
2018-11-07T07:15:14.177Z,23.50
2018-11-07T07:17:42.441Z,20.97
2018-11-07T07:20:14.036Z,21.30
2018-11-07T07:22:42.729Z,21.62
2018-11-07T07:25:11.871Z,21.52
2018-11-07T07:27:40.334Z,22.55
2018-11-07T07:30:11.205Z,22.22
2018-11-07T07:32:39.759Z,24.02
2018-11-07T07:35:07.882Z,22.40
2018-11-07T07:37:35.995Z,23.07
2018-11-07T07:40:04.704Z,21.30
2018-11-07T07:42:32.920Z,23.07
2018-11-07T07:45:01.014Z,22.45
2018-11-07T07:47:29.103Z,21.70
2018-11-07T07:49:57.309Z,21.50
2018-11-07T07:52:25.392Z,22.75
2018-11-07T07:54:53.501Z,20.85
2018-11-07T07:57:21.663Z,20.80
2018-11-07T07:59:49.829Z,24.43
2018-11-07T08:02:18.071Z,22.10
2018-11-07T08:04:46.261Z,23.02
2018-11-07T08:07:14.373Z,24.12
2018-11-07T08:09:42.494Z,25.60
2018-11-07T08:12:10.628Z,22.50
2018-11-07T08:14:38.768Z,23.60
2018-11-07T08:17:06.946Z,22.58
2018-11-07T08:19:35.081Z,23.27
2018-11-07T08:22:03.193Z,23.18
2018-11-07T08:24:31.356Z,28.42
2018-11-07T08:26:59.579Z,26.50
2018-11-07T08:29:27.683Z,26.20
2018-11-07T08:31:55.814Z,25.65
2018-11-07T08:34:23.924Z,23.07
2018-11-07T08:36:52.054Z,26.02
2018-11-07T08:39:20.151Z,23.90
2018-11-07T08:41:48.259Z,24.18
2018-11-07T08:44:16.379Z,25.65
2018-11-07T08:46:44.488Z,22.30
2018-11-07T08:49:12.600Z,24.90
2018-11-07T08:51:40.703Z,22.48
2018-11-07T08:54:08.891Z,22.52
2018-11-07T08:56:37.133Z,23.52
2018-11-07T08:59:05.387Z,23.25
2018-11-07T09:04:01.753Z,25.75
2018-11-07T09:06:29.891Z,24.52
2018-11-07T09:08:57.982Z,25.95
2018-11-07T09:11:26.103Z,27.15
2018-11-07T09:13:54.248Z,26.60
2018-11-07T09:16:22.364Z,23.67
2018-11-07T09:18:50.467Z,23.32
2018-11-07T09:21:18.572Z,25.43
2018-11-07T09:23:46.763Z,22.87
2018-11-07T09:26:14.940Z,24.23
2018-11-07T09:28:43.058Z,25.60
2018-11-07T09:31:11.174Z,24.05
2018-11-07T09:33:39.268Z,24.02
2018-11-07T09:36:07.380Z,25.37
2018-11-07T09:38:35.489Z,25.32
2018-11-07T09:41:03.638Z,25.75
2018-11-07T09:43:31.741Z,25.77
2018-11-07T09:45:59.884Z,25.37
2018-11-07T09:48:27.992Z,22.82
2018-11-07T09:50:56.240Z,20.48
2018-11-07T09:53:24.353Z,22.65
2018-11-07T09:55:52.487Z,28.42
2018-11-07T09:58:20.605Z,21.87
2018-11-07T10:00:48.704Z,19.80
2018-11-07T10:03:16.811Z,17.57
2018-11-07T10:05:44.932Z,17.45
2018-11-07T10:08:13.093Z,18.37
2018-11-07T10:10:41.240Z,15.05
2018-11-07T10:13:09.373Z,16.48
2018-11-07T10:15:37.516Z,14.47
2018-11-07T10:18:05.712Z,15.80
2018-11-07T10:20:33.946Z,14.30
2018-11-07T10:23:01.965Z,14.75
2018-11-07T10:25:30.071Z,14.30
2018-11-07T10:27:58.715Z,14.98
2018-11-07T10:30:26.352Z,15.88
2018-11-07T10:32:54.451Z,15.78
2018-11-07T10:35:22.569Z,17.65
2018-11-07T10:37:50.743Z,16.27
2018-11-07T10:40:20.252Z,16.70
2018-11-07T10:42:48.498Z,16.07
2018-11-07T10:45:16.625Z,15.03
2018-11-07T10:47:45.838Z,15.50
2018-11-07T10:50:14.915Z,14.85
2018-11-07T10:52:43.959Z,15.60
2018-11-07T10:55:12.920Z,15.35
2018-11-07T10:57:41.055Z,14.57
2018-11-07T11:00:17.592Z,16.70
2018-11-07T11:02:45.743Z,16.27
2018-11-07T11:05:14.593Z,15.70
2018-11-07T11:07:42.914Z,16.32
2018-11-07T11:10:12.464Z,16.30
2018-11-07T11:12:40.937Z,16.40
2018-11-07T11:15:09.172Z,15.35
2018-11-07T11:17:37.367Z,16.67
2018-11-07T11:20:07.374Z,14.50
2018-11-07T11:22:35.588Z,14.37
2018-11-07T11:25:03.715Z,14.10
2018-11-07T11:27:31.922Z,14.80
2018-11-07T11:30:00.077Z,14.90
2018-11-07T11:32:28.195Z,13.90
2018-11-07T11:34:56.420Z,14.80
2018-11-07T11:37:24.518Z,14.43
2018-11-07T11:39:52.671Z,13.27
2018-11-07T11:42:20.775Z,13.77
2018-11-07T11:44:48.887Z,13.80
2018-11-07T11:47:17.056Z,14.03
2018-11-07T11:49:45.332Z,14.73
2018-11-07T11:52:13.461Z,13.77
2018-11-07T11:54:41.564Z,11.67
2018-11-07T11:57:09.663Z,11.37
2018-11-07T11:59:38.087Z,11.53
2018-11-07T12:02:05.946Z,11.47
2018-11-07T12:04:34.055Z,9.63
2018-11-07T12:07:02.177Z,9.50
2018-11-07T12:09:30.335Z,9.93
2018-11-07T12:11:58.489Z,10.87
2018-11-07T12:14:26.611Z,10.63
2018-11-07T12:16:54.730Z,10.43
2018-11-07T12:19:22.831Z,6.70
2018-11-07T12:21:51.256Z,6.10
2018-11-07T12:24:19.363Z,6.87
2018-11-07T12:26:47.527Z,5.67
2018-11-07T12:29:15.620Z,6.57
2018-11-07T12:31:43.795Z,5.60
2018-11-07T12:34:11.935Z,5.50
2018-11-07T12:36:40.047Z,5.63
2018-11-07T12:39:08.688Z,5.90
2018-11-07T12:41:36.815Z,4.87
2018-11-07T12:44:05.033Z,5.47
2018-11-07T12:46:33.143Z,5.40
2018-11-07T12:49:01.438Z,6.13
2018-11-07T12:51:29.557Z,5.30
2018-11-07T12:53:57.741Z,5.27
2018-11-07T12:56:25.819Z,5.53
2018-11-07T12:58:53.954Z,5.07
2018-11-07T13:01:22.138Z,5.60
2018-11-07T13:03:50.240Z,5.67
2018-11-07T13:06:18.344Z,5.57
2018-11-07T13:08:46.441Z,4.80
2018-11-07T13:11:14.570Z,5.50
2018-11-07T13:13:42.656Z,5.00
2018-11-07T13:16:10.758Z,5.50
2018-11-07T13:18:38.871Z,5.17
2018-11-07T13:21:06.984Z,5.20
2018-11-07T13:23:35.124Z,4.27
2018-11-07T13:26:03.213Z,4.07
2018-11-07T13:28:31.348Z,4.80
2018-11-07T13:30:59.455Z,4.90
2018-11-07T13:33:27.553Z,4.70
2018-11-07T13:35:55.699Z,4.77
2018-11-07T13:38:24.180Z,3.77
2018-11-07T13:40:51.943Z,4.30
2018-11-07T13:43:20.092Z,4.00
2018-11-07T13:45:48.225Z,3.17
2018-11-07T13:48:16.364Z,3.90
2018-11-07T13:50:44.568Z,4.00
2018-11-07T13:53:12.738Z,2.93
2018-11-07T13:55:40.869Z,3.07
2018-11-07T13:58:08.968Z,3.17
2018-11-07T14:00:37.067Z,3.27
2018-11-07T14:03:05.340Z,2.70
2018-11-07T14:05:33.588Z,2.50
2018-11-07T14:08:01.714Z,3.30
2018-11-07T14:10:29.802Z,3.00
2018-11-07T14:12:57.938Z,2.90
2018-11-07T14:15:26.027Z,3.80
2018-11-07T14:17:54.156Z,3.97
2018-11-07T14:20:22.286Z,3.40
2018-11-07T14:22:50.370Z,3.33
2018-11-07T14:25:18.465Z,3.17
2018-11-07T14:27:46.788Z,2.87
2018-11-07T14:30:16.030Z,3.10
2018-11-07T14:32:51.588Z,3.53
2018-11-07T14:35:19.774Z,3.20
2018-11-07T14:37:47.865Z,3.27
2018-11-07T14:40:16.047Z,3.50
2018-11-07T14:42:44.146Z,3.60
2018-11-07T14:45:12.859Z,4.03
2018-11-07T14:47:41.616Z,4.00
2018-11-07T14:50:10.395Z,3.47
2018-11-07T14:52:38.485Z,3.97
2018-11-07T14:55:06.847Z,4.53
2018-11-07T14:57:35.524Z,4.20
2018-11-07T15:00:03.901Z,3.60
2018-11-07T15:02:35.065Z,3.80
2018-11-07T15:05:03.166Z,3.37
2018-11-07T15:07:31.235Z,4.27
2018-11-07T15:10:00.436Z,3.93
2018-11-07T15:12:28.593Z,4.17
2018-11-07T15:14:56.723Z,4.10
2018-11-07T15:17:24.877Z,4.80
2018-11-07T15:19:52.951Z,4.00
2018-11-07T15:22:21.360Z,4.30
2018-11-07T15:24:49.516Z,4.07
2018-11-07T15:27:17.570Z,3.90
2018-11-07T15:29:45.660Z,4.40
2018-11-07T15:32:13.807Z,4.00
2018-11-07T15:34:41.899Z,4.93
2018-11-07T15:37:09.982Z,4.50
2018-11-07T15:39:38.091Z,4.40
2018-11-07T15:42:06.209Z,3.80
2018-11-07T15:44:34.308Z,4.93
2018-11-07T15:47:02.472Z,4.40
2018-11-07T15:49:30.544Z,3.80
2018-11-07T15:51:58.791Z,4.93
2018-11-07T15:54:26.819Z,4.40
2018-11-07T15:56:54.979Z,4.10
2018-11-07T15:59:23.108Z,3.60
2018-11-07T16:01:51.264Z,3.43
2018-11-07T16:04:19.384Z,4.30
2018-11-07T16:06:47.467Z,3.80
2018-11-07T16:09:15.579Z,4.43
2018-11-07T16:11:43.666Z,6.13
2018-11-07T16:14:11.785Z,4.80
2018-11-07T16:16:39.897Z,5.03
2018-11-07T16:19:08.000Z,4.23
2018-11-07T16:21:36.096Z,4.47
2018-11-07T16:24:11.021Z,3.87
2018-11-07T16:26:39.076Z,3.37
2018-11-07T16:29:07.136Z,3.30
2018-11-07T16:31:35.298Z,3.60
2018-11-07T16:34:03.345Z,3.55
2018-11-07T16:36:31.984Z,4.13
2018-11-07T16:39:00.114Z,4.60
2018-11-07T16:41:28.319Z,4.85
2018-11-07T16:43:56.331Z,3.58
2018-11-07T16:46:24.542Z,4.63
2018-11-07T16:48:52.600Z,4.47
2018-11-07T16:51:20.706Z,4.25
2018-11-07T16:54:25.899Z,4.03
2018-11-07T16:56:54.056Z,4.10
2018-11-07T16:59:22.146Z,3.62
2018-11-07T17:01:50.261Z,4.25
2018-11-07T17:04:18.414Z,4.17
2018-11-07T17:06:46.480Z,3.25
2018-11-07T17:09:14.641Z,3.72
2018-11-07T17:11:42.759Z,3.77
2018-11-07T17:14:10.844Z,3.87
2018-11-07T17:16:38.971Z,3.42
2018-11-07T17:19:07.124Z,4.97
2018-11-07T17:21:35.222Z,4.10
2018-11-07T17:24:03.348Z,5.05
2018-11-07T17:26:32.152Z,5.37
2018-11-07T17:29:00.230Z,4.70
2018-11-07T17:31:28.615Z,4.87
2018-11-07T17:33:56.736Z,5.33
2018-11-07T17:36:24.915Z,5.83
2018-11-07T17:38:53.124Z,5.05
2018-11-07T17:41:21.312Z,5.13
2018-11-07T17:43:49.415Z,4.58
2018-11-07T17:46:17.513Z,4.13
2018-11-07T17:48:46.676Z,4.85
2018-11-07T17:51:14.811Z,4.10
2018-11-07T17:53:42.926Z,8.95
2018-11-07T17:56:11.039Z,9.68
2018-11-07T17:58:39.145Z,9.43
2018-11-07T18:01:07.300Z,7.92
2018-11-07T18:03:35.493Z,7.87
2018-11-07T18:06:03.554Z,6.70
2018-11-07T18:08:31.915Z,6.50
2018-11-07T18:11:00.035Z,6.33
2018-11-07T18:13:28.139Z,5.00
2018-11-07T18:15:56.251Z,5.40
2018-11-07T18:18:24.365Z,6.25
2018-11-07T18:20:52.459Z,5.00
2018-11-07T18:23:20.586Z,4.85
2018-11-07T18:25:48.875Z,5.10
2018-11-07T18:28:16.972Z,5.50
2018-11-07T18:30:45.107Z,5.37
2018-11-07T18:33:13.286Z,5.72
2018-11-07T18:35:41.401Z,5.17
2018-11-07T18:38:09.571Z,9.98
2018-11-07T18:40:37.707Z,6.45
2018-11-07T18:43:05.910Z,5.58
2018-11-07T18:45:33.957Z,6.55
2018-11-07T18:48:02.061Z,5.75
2018-11-07T18:50:30.178Z,7.80
2018-11-07T18:52:58.303Z,7.22
2018-11-07T18:55:26.427Z,6.95
2018-11-07T18:57:54.583Z,7.55
2018-11-07T19:00:22.665Z,6.95
2018-11-07T19:02:50.982Z,6.85
2018-11-07T19:05:19.408Z,7.60
2018-11-07T19:07:47.509Z,7.10
2018-11-07T19:10:17.082Z,7.12
2018-11-07T19:12:45.965Z,7.47
2018-11-07T19:15:14.971Z,6.72
2018-11-07T19:17:44.187Z,6.28
2018-11-07T19:20:13.521Z,7.58
2018-11-07T19:22:41.795Z,7.87
2018-11-07T19:25:12.080Z,7.60
2018-11-07T19:27:40.189Z,8.33
2018-11-07T19:30:10.469Z,8.23
2018-11-07T19:32:38.652Z,8.18
2018-11-07T19:35:08.485Z,7.58
2018-11-07T19:37:36.661Z,7.30
2018-11-07T19:40:05.919Z,7.40
2018-11-07T19:42:34.175Z,6.40
2018-11-07T19:45:05.099Z,6.93
2018-11-07T19:47:34.275Z,6.10
2018-11-07T19:50:02.365Z,5.80
2018-11-07T19:52:30.475Z,5.80
2018-11-07T19:54:58.639Z,6.07
2018-11-07T19:57:26.837Z,6.77
2018-11-07T19:59:54.986Z,5.22
2018-11-07T20:02:23.134Z,6.25
2018-11-07T20:04:51.292Z,6.05
2018-11-07T20:07:19.382Z,6.45
2018-11-07T20:09:47.623Z,5.70
2018-11-07T20:12:15.732Z,5.20
2018-11-07T20:14:43.857Z,5.75
2018-11-07T20:17:12.074Z,6.10
2018-11-07T20:19:40.097Z,5.80
2018-11-07T20:22:08.223Z,6.00
2018-11-07T20:24:36.823Z,6.30
2018-11-07T20:27:05.790Z,4.78
2018-11-07T20:29:33.910Z,6.03
2018-11-07T20:32:02.092Z,4.90
2018-11-07T20:34:30.275Z,4.83
2018-11-07T20:36:58.448Z,5.25
2018-11-07T20:39:26.578Z,4.83
2018-11-07T20:41:54.735Z,5.00
2018-11-07T20:44:22.872Z,5.92
2018-11-07T20:46:51.040Z,5.72
2018-11-07T20:49:19.217Z,6.57
2018-11-07T20:51:47.443Z,5.70
2018-11-07T20:54:15.580Z,6.53
2018-11-07T20:56:43.724Z,5.90
2018-11-07T20:59:11.851Z,6.40
2018-11-07T21:01:40.104Z,6.53
2018-11-07T21:04:08.172Z,6.85
2018-11-07T21:06:36.320Z,6.80
2018-11-07T21:09:06.536Z,8.55
2018-11-07T21:11:34.641Z,7.12
2018-11-07T21:14:02.758Z,7.63
2018-11-07T21:16:30.911Z,7.30
2018-11-07T21:18:59.005Z,7.70
2018-11-07T21:21:27.216Z,6.40
2018-11-07T21:23:55.432Z,6.20
2018-11-07T21:26:23.965Z,7.33
2018-11-07T21:28:52.691Z,7.30
2018-11-07T21:31:20.795Z,6.83
2018-11-07T21:33:48.933Z,8.10
2018-11-07T21:36:17.066Z,7.08
2018-11-07T21:38:45.189Z,6.47
2018-11-07T21:41:13.332Z,7.30
2018-11-07T21:43:42.052Z,6.25
2018-11-07T21:46:10.177Z,7.00
2018-11-07T21:48:38.628Z,6.50
2018-11-07T21:51:06.742Z,7.10
2018-11-07T21:53:34.907Z,7.20
2018-11-07T21:56:03.024Z,6.40
2018-11-07T21:58:31.127Z,6.63
2018-11-07T22:00:59.256Z,5.47
2018-11-07T22:03:27.385Z,6.90
2018-11-07T22:05:55.483Z,6.07
2018-11-07T22:08:23.586Z,6.87
2018-11-07T22:10:51.691Z,6.60
2018-11-07T22:13:20.073Z,5.90
2018-11-07T22:15:48.132Z,4.90
2018-11-07T22:18:16.277Z,4.80
2018-11-07T22:20:44.753Z,4.20
2018-11-07T22:23:13.096Z,5.33
2018-11-07T22:25:41.197Z,5.13
2018-11-07T22:28:09.307Z,5.10
2018-11-07T22:30:37.422Z,5.25
2018-11-07T22:33:05.689Z,4.90
2018-11-07T22:35:33.884Z,5.20
2018-11-07T22:38:02.044Z,5.50
2018-11-07T22:40:31.611Z,6.00
2018-11-07T22:43:02.354Z,4.90
2018-11-07T22:45:30.536Z,4.70
2018-11-07T22:47:58.644Z,4.90
2018-11-07T22:50:26.953Z,5.63
2018-11-07T22:52:55.074Z,5.20
2018-11-07T22:55:23.221Z,5.40
2018-11-07T22:57:51.380Z,5.12
2018-11-07T23:00:24.889Z,6.33
2018-11-07T23:02:55.236Z,6.07
2018-11-07T23:05:23.428Z,6.60
2018-11-07T23:07:51.986Z,6.03
2018-11-07T23:10:20.130Z,6.33
2018-11-07T23:12:48.716Z,5.80
2018-11-07T23:15:22.254Z,5.87
2018-11-07T23:17:50.829Z,5.70
2018-11-07T23:20:18.998Z,6.37
2018-11-07T23:22:47.207Z,6.90
2018-11-07T23:25:15.431Z,6.87
2018-11-07T23:27:43.624Z,6.70
2018-11-07T23:30:12.733Z,6.62
2018-11-07T23:32:40.879Z,6.17
2018-11-07T23:35:09.439Z,6.20
2018-11-07T23:37:37.634Z,6.08
2018-11-07T23:40:06.056Z,5.90
2018-11-07T23:42:34.460Z,6.50
2018-11-07T23:45:02.677Z,6.20
2018-11-07T23:47:30.927Z,6.20
2018-11-07T23:49:59.060Z,6.60
2018-11-07T23:52:32.606Z,6.73
2018-11-07T23:55:01.031Z,7.13
2018-11-07T23:57:29.227Z,5.97
2018-11-07T23:59:57.303Z,6.58
